createdAt,value
2017-10-07T00:05:13.715Z,96292
2017-10-07T00:10:41.840Z,96282
2017-10-07T00:16:09.977Z,96288
2017-10-07T00:21:38.111Z,96281
2017-10-07T00:27:06.231Z,96287
2017-10-07T00:32:35.124Z,96278
2017-10-07T00:38:03.262Z,96277
2017-10-07T00:43:32.159Z,96273
2017-10-07T00:49:00.340Z,96273
2017-10-07T00:54:28.485Z,96270
2017-10-07T00:59:56.630Z,96270
2017-10-07T01:05:24.759Z,96261
2017-10-07T01:10:53.670Z,96264
2017-10-07T01:16:21.807Z,96255
2017-10-07T01:21:50.704Z,96257
2017-10-07T01:27:18.822Z,96258
2017-10-07T01:32:47.047Z,96260
2017-10-07T01:38:15.180Z,96262
2017-10-07T01:43:43.334Z,96271
2017-10-07T01:49:11.457Z,96254
2017-10-07T01:54:40.355Z,96268
2017-10-07T02:00:08.508Z,96285
2017-10-07T02:05:36.653Z,96282
2017-10-07T02:11:05.546Z,96284
2017-10-07T02:16:33.673Z,96288
2017-10-07T02:22:01.826Z,96293
2017-10-07T02:27:29.956Z,96283
2017-10-07T02:32:58.117Z,96285
2017-10-07T02:38:26.262Z,96294
2017-10-07T02:43:54.477Z,96297
2017-10-07T02:49:23.504Z,96306
2017-10-07T02:54:51.801Z,96312
2017-10-07T03:00:19.976Z,96319
2017-10-07T03:05:48.872Z,96311
2017-10-07T03:11:17.007Z,96300
2017-10-07T03:16:45.917Z,96318
2017-10-07T03:22:14.056Z,96304
2017-10-07T03:27:42.223Z,96312
2017-10-07T03:33:10.351Z,96319
2017-10-07T03:38:39.260Z,96322
2017-10-07T03:44:07.408Z,96320
2017-10-07T03:49:35.544Z,96321
2017-10-07T03:55:03.675Z,96322
2017-10-07T04:00:31.821Z,96322
2017-10-07T04:05:59.949Z,96330
2017-10-07T04:11:28.088Z,96323
2017-10-07T04:16:56.998Z,96326
2017-10-07T04:22:25.121Z,96328
2017-10-07T04:27:53.242Z,96335
2017-10-07T04:33:21.376Z,96346
2017-10-07T04:38:49.518Z,96340
2017-10-07T04:44:17.661Z,96356
2017-10-07T04:49:45.788Z,96350
2017-10-07T04:55:14.680Z,96353
2017-10-07T05:00:42.832Z,96343
2017-10-07T05:06:11.747Z,96354
2017-10-07T05:11:39.871Z,96347
2017-10-07T05:17:07.996Z,96357
2017-10-07T05:22:36.124Z,96357
2017-10-07T05:28:04.256Z,96354
2017-10-07T05:33:32.410Z,96354
2017-10-07T05:39:01.300Z,96360
2017-10-07T05:44:29.422Z,96366
2017-10-07T05:49:58.328Z,96371
2017-10-07T05:55:26.459Z,96364
2017-10-07T06:00:55.350Z,96356
2017-10-07T06:06:23.496Z,96362
2017-10-07T06:11:52.388Z,96369
2017-10-07T06:17:20.533Z,96369
2017-10-07T06:22:49.453Z,96373
2017-10-07T06:28:17.604Z,96374
2017-10-07T06:33:45.736Z,96371
2017-10-07T06:39:13.913Z,96376
2017-10-07T06:44:42.039Z,96379
2017-10-07T06:50:10.201Z,96382
2017-10-07T06:55:38.344Z,96386
2017-10-07T07:01:06.483Z,96383
2017-10-07T07:06:34.616Z,96384
2017-10-07T07:12:09.117Z,96375
2017-10-07T07:17:37.247Z,96377
2017-10-07T07:23:06.374Z,96369
2017-10-07T07:28:35.478Z,96358
2017-10-07T07:34:03.633Z,96368
2017-10-07T07:39:32.568Z,96369
2017-10-07T07:45:00.726Z,96370
2017-10-07T07:50:28.883Z,96377
2017-10-07T07:55:57.023Z,96383
2017-10-07T08:01:25.442Z,96371
2017-10-07T08:06:54.387Z,96372
2017-10-07T08:12:23.464Z,96388
2017-10-07T08:17:51.598Z,96384
2017-10-07T08:23:19.776Z,96379
2017-10-07T08:28:47.910Z,96384
2017-10-07T08:34:16.046Z,96379
2017-10-07T08:39:44.941Z,96382
2017-10-07T08:45:13.088Z,96389
2017-10-07T08:50:41.218Z,96377
2017-10-07T08:56:10.984Z,96375
2017-10-07T09:01:39.103Z,96377
2017-10-07T09:07:07.226Z,96375
2017-10-07T09:12:35.373Z,96374
2017-10-07T09:18:03.538Z,96362
2017-10-07T09:23:31.682Z,96359
2017-10-07T09:28:59.927Z,96354
2017-10-07T09:34:32.386Z,96354
2017-10-07T09:40:00.542Z,96341
2017-10-07T09:45:28.709Z,96344
2017-10-07T09:51:00.751Z,96339
2017-10-07T09:56:29.011Z,96339
2017-10-07T10:01:57.458Z,96335
2017-10-07T10:07:25.632Z,96330
2017-10-07T10:12:53.887Z,96325
2017-10-07T10:18:22.092Z,96332
2017-10-07T10:23:50.304Z,96323
2017-10-07T10:29:18.472Z,96315
2017-10-07T10:34:47.614Z,96321
2017-10-07T10:40:16.552Z,96300
2017-10-07T10:45:44.675Z,96304
2017-10-07T10:51:12.900Z,96299
2017-10-07T10:56:41.118Z,96284
2017-10-07T11:02:09.284Z,96276
2017-10-07T11:07:37.434Z,96262
2017-10-07T11:13:09.170Z,96261
2017-10-07T11:18:37.338Z,96253
2017-10-07T11:24:05.483Z,96253
2017-10-07T11:29:33.634Z,96238
2017-10-07T11:35:01.792Z,96228
2017-10-07T11:40:29.933Z,96211
2017-10-07T11:45:58.086Z,96220
2017-10-07T11:51:26.244Z,96206
2017-10-07T11:56:54.384Z,96200
2017-10-07T12:02:22.532Z,96191
2017-10-07T12:07:50.667Z,96184
2017-10-07T12:13:18.836Z,96177
2017-10-07T12:18:46.993Z,96161
2017-10-07T12:24:15.893Z,96154
2017-10-07T12:29:44.050Z,96148
2017-10-07T12:35:12.199Z,96154
2017-10-07T12:40:40.352Z,96129
2017-10-07T12:46:09.244Z,96138
2017-10-07T12:51:37.407Z,96129
2017-10-07T12:57:05.563Z,96130
2017-10-07T13:02:33.698Z,96118
2017-10-07T13:08:02.602Z,96107
2017-10-07T13:13:30.756Z,96119
2017-10-07T13:18:58.908Z,96105
2017-10-07T13:24:27.047Z,96097
2017-10-07T13:29:55.214Z,96077
2017-10-07T13:35:23.381Z,96077
2017-10-07T13:40:51.515Z,96067
2017-10-07T13:46:19.722Z,96068
2017-10-07T13:51:47.895Z,96064
2017-10-07T13:57:16.073Z,96054
2017-10-07T14:02:44.235Z,96041
2017-10-07T14:08:12.389Z,96039
2017-10-07T14:13:40.534Z,96019
2017-10-07T14:19:08.696Z,96011
2017-10-07T14:24:36.830Z,96011
2017-10-07T14:30:05.926Z,96009
2017-10-07T14:35:34.088Z,96012
2017-10-07T14:41:02.237Z,95998
2017-10-07T14:46:30.374Z,95994
2017-10-07T14:51:58.540Z,95983
2017-10-07T14:57:26.867Z,95970
2017-10-07T15:02:55.095Z,95975
2017-10-07T15:08:23.393Z,95965
2017-10-07T15:13:51.584Z,95959
2017-10-07T15:19:19.784Z,95940
2017-10-07T15:24:47.939Z,95943
2017-10-07T15:30:16.129Z,95936
2017-10-07T15:35:44.270Z,95930
2017-10-07T15:41:13.212Z,95919
2017-10-07T15:46:41.359Z,95924
2017-10-07T15:52:09.580Z,95922
2017-10-07T15:57:37.749Z,95914
2017-10-07T16:03:05.914Z,95899
2017-10-07T16:08:34.126Z,95907
2017-10-07T16:14:05.623Z,95892
2017-10-07T16:19:33.764Z,95890
2017-10-07T16:25:01.911Z,95883
2017-10-07T16:30:30.055Z,95894
2017-10-07T16:35:58.234Z,95896
2017-10-07T16:41:27.365Z,95888
2017-10-07T16:46:56.542Z,95877
2017-10-07T16:52:24.718Z,95882
2017-10-07T16:57:53.671Z,95873
2017-10-07T17:03:21.986Z,95875
2017-10-07T17:08:50.147Z,95870
2017-10-07T17:14:18.306Z,95865
2017-10-07T17:19:46.443Z,95870
2017-10-07T17:25:15.381Z,95865
2017-10-07T17:30:43.530Z,95858
2017-10-07T17:36:11.687Z,95858
2017-10-07T17:41:39.830Z,95857
2017-10-07T17:47:07.987Z,95854
2017-10-07T17:52:36.121Z,95851
2017-10-07T17:58:04.272Z,95838
2017-10-07T18:03:32.641Z,95832
2017-10-07T18:09:00.961Z,95817
2017-10-07T18:14:29.114Z,95811
2017-10-07T18:19:57.291Z,95798
2017-10-07T18:25:25.452Z,95789
2017-10-07T18:30:54.377Z,95781
2017-10-07T18:36:22.560Z,95771
2017-10-07T18:41:50.710Z,95775
2017-10-07T18:47:21.953Z,95767
2017-10-07T18:52:50.142Z,95773
2017-10-07T18:58:20.399Z,95763
2017-10-07T19:03:48.567Z,95758
2017-10-07T19:09:16.712Z,95759
2017-10-07T19:14:44.854Z,95747
2017-10-07T19:20:13.032Z,95742
2017-10-07T19:25:41.182Z,95749
2017-10-07T19:31:09.444Z,95737
2017-10-07T19:36:37.634Z,95733
2017-10-07T19:42:05.766Z,95737
2017-10-07T19:47:33.902Z,95724
2017-10-07T19:53:02.081Z,95721
2017-10-07T19:58:30.239Z,95717
2017-10-07T20:03:58.416Z,95714
2017-10-07T20:09:26.919Z,95710
2017-10-07T20:14:55.194Z,95701
2017-10-07T20:20:29.443Z,95700
2017-10-07T20:25:58.101Z,95686
2017-10-07T20:31:27.244Z,95683
2017-10-07T20:36:55.425Z,95679
2017-10-07T20:42:24.705Z,95678
2017-10-07T20:47:52.894Z,95667
2017-10-07T20:53:21.109Z,95663
2017-10-07T20:58:49.282Z,95662
2017-10-07T21:04:20.425Z,95650
2017-10-07T21:09:49.406Z,95651
2017-10-07T21:15:17.559Z,95646
2017-10-07T21:20:47.130Z,95638
2017-10-07T21:26:15.271Z,95633
2017-10-07T21:31:43.424Z,95639
2017-10-07T21:37:11.587Z,95637
2017-10-07T21:42:43.200Z,95630
2017-10-07T21:48:12.161Z,95631
2017-10-07T21:53:41.085Z,95631
2017-10-07T21:59:09.218Z,95618
2017-10-07T22:04:42.032Z,95619
2017-10-07T22:10:10.197Z,95616
2017-10-07T22:15:38.367Z,95610
2017-10-07T22:21:06.544Z,95608
2017-10-07T22:26:35.944Z,95603
2017-10-07T22:32:04.192Z,95622
2017-10-07T22:37:33.100Z,95613
2017-10-07T22:43:01.248Z,95615
2017-10-07T22:48:29.379Z,95619
2017-10-07T22:54:03.959Z,95618
2017-10-07T22:59:32.094Z,95621
2017-10-07T23:05:00.238Z,95676
2017-10-07T23:10:29.348Z,95642
2017-10-07T23:15:57.486Z,95624
2017-10-07T23:21:25.631Z,95659
2017-10-07T23:26:56.873Z,95652
2017-10-07T23:32:25.115Z,95644
2017-10-07T23:37:53.247Z,95631
2017-10-07T23:43:21.392Z,95611
2017-10-07T23:48:49.596Z,95606
2017-10-07T23:54:27.875Z,95599
2017-10-07T23:59:56.003Z,95606
